sensor_id;sensor_type;location;lat;lon;timestamp;P1;durP1;ratioP1;P2;durP2;ratioP2
22812;SDS011;11573;51.334;3.244;2023-05-07T00:02:04;35.45;;;22.55;;
22812;SDS011;11573;51.334;3.244;2023-05-07T00:04:33;28.05;;;21.63;;
22812;SDS011;11573;51.334;3.244;2023-05-07T00:07:04;30.92;;;22.00;;
22812;SDS011;11573;51.334;3.244;2023-05-07T00:09:31;28.75;;;21.15;;
22812;SDS011;11573;51.334;3.244;2023-05-07T00:11:58;33.83;;;22.73;;
22812;SDS011;11573;51.334;3.244;2023-05-07T00:14:26;33.70;;;22.27;;
22812;SDS011;11573;51.334;3.244;2023-05-07T00:16:53;28.85;;;20.85;;
22812;SDS011;11573;51.334;3.244;2023-05-07T00:19:20;29.27;;;21.30;;
22812;SDS011;11573;51.334;3.244;2023-05-07T00:21:47;27.48;;;21.17;;
22812;SDS011;11573;51.334;3.244;2023-05-07T00:24:14;27.63;;;21.50;;
22812;SDS011;11573;51.334;3.244;2023-05-07T00:26:40;30.45;;;21.15;;
22812;SDS011;11573;51.334;3.244;2023-05-07T00:29:08;33.72;;;22.30;;
22812;SDS011;11573;51.334;3.244;2023-05-07T00:31:35;35.20;;;21.70;;
22812;SDS011;11573;51.334;3.244;2023-05-07T00:34:02;26.67;;;21.92;;
22812;SDS011;11573;51.334;3.244;2023-05-07T00:36:29;30.98;;;21.52;;
22812;SDS011;11573;51.334;3.244;2023-05-07T00:38:57;31.00;;;22.83;;
22812;SDS011;11573;51.334;3.244;2023-05-07T00:41:26;27.60;;;21.67;;
22812;SDS011;11573;51.334;3.244;2023-05-07T00:43:53;31.13;;;21.42;;
22812;SDS011;11573;51.334;3.244;2023-05-07T00:46:20;29.42;;;21.92;;
22812;SDS011;11573;51.334;3.244;2023-05-07T00:48:48;31.42;;;21.80;;
22812;SDS011;11573;51.334;3.244;2023-05-07T00:51:17;31.38;;;21.85;;
22812;SDS011;11573;51.334;3.244;2023-05-07T00:53:44;32.80;;;21.38;;
22812;SDS011;11573;51.334;3.244;2023-05-07T00:56:12;29.50;;;22.60;;
22812;SDS011;11573;51.334;3.244;2023-05-07T00:58:40;28.02;;;21.25;;
22812;SDS011;11573;51.334;3.244;2023-05-07T01:01:07;32.72;;;21.95;;
22812;SDS011;11573;51.334;3.244;2023-05-07T01:03:34;28.60;;;21.42;;
22812;SDS011;11573;51.334;3.244;2023-05-07T01:06:02;32.45;;;22.05;;
22812;SDS011;11573;51.334;3.244;2023-05-07T01:08:29;29.90;;;21.50;;
22812;SDS011;11573;51.334;3.244;2023-05-07T01:10:58;29.17;;;22.10;;
22812;SDS011;11573;51.334;3.244;2023-05-07T01:13:27;27.85;;;22.30;;
22812;SDS011;11573;51.334;3.244;2023-05-07T01:15:54;30.67;;;22.15;;
22812;SDS011;11573;51.334;3.244;2023-05-07T01:18:21;27.77;;;22.08;;
22812;SDS011;11573;51.334;3.244;2023-05-07T01:20:48;25.50;;;21.67;;
22812;SDS011;11573;51.334;3.244;2023-05-07T01:23:15;29.55;;;22.70;;
22812;SDS011;11573;51.334;3.244;2023-05-07T01:25:50;32.90;;;22.60;;
22812;SDS011;11573;51.334;3.244;2023-05-07T01:28:19;36.50;;;23.50;;
22812;SDS011;11573;51.334;3.244;2023-05-07T01:30:48;30.10;;;24.02;;
22812;SDS011;11573;51.334;3.244;2023-05-07T01:33:22;31.88;;;22.30;;
22812;SDS011;11573;51.334;3.244;2023-05-07T01:35:51;29.65;;;23.02;;
22812;SDS011;11573;51.334;3.244;2023-05-07T01:38:23;31.17;;;22.10;;
22812;SDS011;11573;51.334;3.244;2023-05-07T01:40:50;31.02;;;24.25;;
22812;SDS011;11573;51.334;3.244;2023-05-07T01:43:18;29.90;;;23.60;;
22812;SDS011;11573;51.334;3.244;2023-05-07T01:45:45;35.92;;;24.27;;
22812;SDS011;11573;51.334;3.244;2023-05-07T01:48:13;35.17;;;24.52;;
22812;SDS011;11573;51.334;3.244;2023-05-07T01:50:42;33.00;;;23.73;;
22812;SDS011;11573;51.334;3.244;2023-05-07T01:53:10;30.02;;;23.42;;
22812;SDS011;11573;51.334;3.244;2023-05-07T01:55:37;34.83;;;25.02;;
22812;SDS011;11573;51.334;3.244;2023-05-07T01:58:04;28.10;;;23.92;;
22812;SDS011;11573;51.334;3.244;2023-05-07T02:00:31;35.33;;;24.58;;
22812;SDS011;11573;51.334;3.244;2023-05-07T02:02:59;38.60;;;24.73;;
22812;SDS011;11573;51.334;3.244;2023-05-07T02:05:37;37.83;;;26.00;;
22812;SDS011;11573;51.334;3.244;2023-05-07T02:08:11;35.90;;;25.02;;
22812;SDS011;11573;51.334;3.244;2023-05-07T02:10:38;31.33;;;22.98;;
22812;SDS011;11573;51.334;3.244;2023-05-07T02:13:06;35.38;;;24.40;;
22812;SDS011;11573;51.334;3.244;2023-05-07T02:15:33;34.83;;;25.23;;
22812;SDS011;11573;51.334;3.244;2023-05-07T02:18:05;32.65;;;25.70;;
22812;SDS011;11573;51.334;3.244;2023-05-07T02:20:34;30.67;;;23.80;;
22812;SDS011;11573;51.334;3.244;2023-05-07T02:23:01;32.03;;;24.38;;
22812;SDS011;11573;51.334;3.244;2023-05-07T02:25:29;36.55;;;24.38;;
22812;SDS011;11573;51.334;3.244;2023-05-07T02:27:57;36.70;;;24.55;;
22812;SDS011;11573;51.334;3.244;2023-05-07T02:30:37;29.42;;;23.15;;
22812;SDS011;11573;51.334;3.244;2023-05-07T02:33:04;33.83;;;22.65;;
22812;SDS011;11573;51.334;3.244;2023-05-07T02:35:32;29.42;;;22.80;;
22812;SDS011;11573;51.334;3.244;2023-05-07T02:37:59;29.38;;;23.75;;
22812;SDS011;11573;51.334;3.244;2023-05-07T02:40:28;30.92;;;24.00;;
22812;SDS011;11573;51.334;3.244;2023-05-07T02:42:55;30.20;;;23.77;;
22812;SDS011;11573;51.334;3.244;2023-05-07T02:45:22;33.30;;;24.02;;
22812;SDS011;11573;51.334;3.244;2023-05-07T02:47:52;34.85;;;23.42;;
22812;SDS011;11573;51.334;3.244;2023-05-07T02:50:19;37.28;;;24.80;;
22812;SDS011;11573;51.334;3.244;2023-05-07T02:52:46;32.00;;;24.77;;
22812;SDS011;11573;51.334;3.244;2023-05-07T02:55:14;33.47;;;26.50;;
22812;SDS011;11573;51.334;3.244;2023-05-07T02:57:41;32.00;;;25.63;;
22812;SDS011;11573;51.334;3.244;2023-05-07T03:00:12;35.55;;;25.98;;
22812;SDS011;11573;51.334;3.244;2023-05-07T03:02:46;36.88;;;25.23;;
22812;SDS011;11573;51.334;3.244;2023-05-07T03:05:14;34.17;;;24.90;;
22812;SDS011;11573;51.334;3.244;2023-05-07T03:07:41;32.47;;;24.38;;
22812;SDS011;11573;51.334;3.244;2023-05-07T03:10:12;33.75;;;25.30;;
22812;SDS011;11573;51.334;3.244;2023-05-07T03:12:39;33.25;;;25.70;;
22812;SDS011;11573;51.334;3.244;2023-05-07T03:15:08;32.80;;;25.95;;
22812;SDS011;11573;51.334;3.244;2023-05-07T03:17:36;30.50;;;24.65;;
22812;SDS011;11573;51.334;3.244;2023-05-07T03:20:04;30.38;;;25.33;;
22812;SDS011;11573;51.334;3.244;2023-05-07T03:22:31;32.03;;;24.23;;
22812;SDS011;11573;51.334;3.244;2023-05-07T03:24:58;33.33;;;25.30;;
22812;SDS011;11573;51.334;3.244;2023-05-07T03:27:26;34.38;;;24.30;;
22812;SDS011;11573;51.334;3.244;2023-05-07T03:29:53;30.48;;;24.55;;
22812;SDS011;11573;51.334;3.244;2023-05-07T03:32:20;31.58;;;23.75;;
22812;SDS011;11573;51.334;3.244;2023-05-07T03:34:47;32.60;;;23.95;;
22812;SDS011;11573;51.334;3.244;2023-05-07T03:37:15;26.27;;;21.42;;
22812;SDS011;11573;51.334;3.244;2023-05-07T03:39:42;29.30;;;22.52;;
22812;SDS011;11573;51.334;3.244;2023-05-07T03:42:09;29.45;;;21.75;;
22812;SDS011;11573;51.334;3.244;2023-05-07T03:44:37;31.65;;;23.67;;
22812;SDS011;11573;51.334;3.244;2023-05-07T03:47:04;29.33;;;22.58;;
22812;SDS011;11573;51.334;3.244;2023-05-07T03:49:31;27.35;;;22.38;;
22812;SDS011;11573;51.334;3.244;2023-05-07T03:51:59;31.30;;;21.70;;
22812;SDS011;11573;51.334;3.244;2023-05-07T03:54:26;31.30;;;22.65;;
22812;SDS011;11573;51.334;3.244;2023-05-07T03:56:53;28.25;;;22.05;;
22812;SDS011;11573;51.334;3.244;2023-05-07T03:59:21;31.83;;;22.80;;
22812;SDS011;11573;51.334;3.244;2023-05-07T04:01:49;29.02;;;22.17;;
22812;SDS011;11573;51.334;3.244;2023-05-07T04:04:18;28.98;;;22.30;;
22812;SDS011;11573;51.334;3.244;2023-05-07T04:06:47;33.70;;;22.42;;
22812;SDS011;11573;51.334;3.244;2023-05-07T04:09:14;25.55;;;21.02;;
22812;SDS011;11573;51.334;3.244;2023-05-07T04:11:41;27.67;;;20.98;;
22812;SDS011;11573;51.334;3.244;2023-05-07T04:14:09;28.52;;;21.08;;
22812;SDS011;11573;51.334;3.244;2023-05-07T04:16:36;28.70;;;20.80;;
22812;SDS011;11573;51.334;3.244;2023-05-07T04:19:04;27.98;;;22.45;;
22812;SDS011;11573;51.334;3.244;2023-05-07T04:21:32;25.52;;;21.02;;
22812;SDS011;11573;51.334;3.244;2023-05-07T04:23:59;25.42;;;21.85;;
22812;SDS011;11573;51.334;3.244;2023-05-07T04:26:27;27.48;;;20.98;;
22812;SDS011;11573;51.334;3.244;2023-05-07T04:28:55;27.20;;;21.83;;
22812;SDS011;11573;51.334;3.244;2023-05-07T04:31:22;24.67;;;21.38;;
22812;SDS011;11573;51.334;3.244;2023-05-07T04:33:53;24.92;;;20.33;;
22812;SDS011;11573;51.334;3.244;2023-05-07T04:36:20;26.92;;;20.88;;
22812;SDS011;11573;51.334;3.244;2023-05-07T04:38:57;29.60;;;21.55;;
22812;SDS011;11573;51.334;3.244;2023-05-07T04:41:24;23.85;;;20.83;;
22812;SDS011;11573;51.334;3.244;2023-05-07T04:43:51;26.98;;;21.15;;
22812;SDS011;11573;51.334;3.244;2023-05-07T04:46:21;23.58;;;20.85;;
22812;SDS011;11573;51.334;3.244;2023-05-07T04:48:48;27.50;;;20.17;;
22812;SDS011;11573;51.334;3.244;2023-05-07T04:51:15;28.52;;;20.85;;
22812;SDS011;11573;51.334;3.244;2023-05-07T04:53:42;27.83;;;20.92;;
22812;SDS011;11573;51.334;3.244;2023-05-07T04:56:10;32.15;;;21.65;;
22812;SDS011;11573;51.334;3.244;2023-05-07T04:58:40;25.73;;;18.48;;
22812;SDS011;11573;51.334;3.244;2023-05-07T05:01:08;25.73;;;19.73;;
22812;SDS011;11573;51.334;3.244;2023-05-07T05:03:37;30.10;;;21.80;;
22812;SDS011;11573;51.334;3.244;2023-05-07T05:06:06;28.40;;;21.50;;
22812;SDS011;11573;51.334;3.244;2023-05-07T05:08:33;29.15;;;20.80;;
22812;SDS011;11573;51.334;3.244;2023-05-07T05:11:02;29.60;;;20.73;;
22812;SDS011;11573;51.334;3.244;2023-05-07T05:13:31;26.50;;;20.75;;
22812;SDS011;11573;51.334;3.244;2023-05-07T05:16:01;25.65;;;19.77;;
22812;SDS011;11573;51.334;3.244;2023-05-07T05:18:31;28.00;;;20.02;;
22812;SDS011;11573;51.334;3.244;2023-05-07T05:20:59;22.55;;;19.65;;
22812;SDS011;11573;51.334;3.244;2023-05-07T05:23:27;22.90;;;18.75;;
22812;SDS011;11573;51.334;3.244;2023-05-07T05:25:57;26.08;;;20.38;;
22812;SDS011;11573;51.334;3.244;2023-05-07T05:28:27;24.52;;;19.92;;
22812;SDS011;11573;51.334;3.244;2023-05-07T05:30:55;23.17;;;19.25;;
22812;SDS011;11573;51.334;3.244;2023-05-07T05:33:24;27.50;;;20.35;;
22812;SDS011;11573;51.334;3.244;2023-05-07T05:35:53;25.42;;;19.58;;
22812;SDS011;11573;51.334;3.244;2023-05-07T05:38:21;25.05;;;20.00;;
22812;SDS011;11573;51.334;3.244;2023-05-07T05:40:48;21.98;;;17.80;;
22812;SDS011;11573;51.334;3.244;2023-05-07T05:43:17;21.35;;;17.73;;
22812;SDS011;11573;51.334;3.244;2023-05-07T05:45:44;25.15;;;17.85;;
22812;SDS011;11573;51.334;3.244;2023-05-07T05:48:11;20.85;;;16.90;;
22812;SDS011;11573;51.334;3.244;2023-05-07T05:50:38;19.58;;;15.00;;
22812;SDS011;11573;51.334;3.244;2023-05-07T05:53:06;18.80;;;15.57;;
22812;SDS011;11573;51.334;3.244;2023-05-07T05:55:33;22.48;;;15.82;;
22812;SDS011;11573;51.334;3.244;2023-05-07T05:58:00;21.52;;;15.82;;
22812;SDS011;11573;51.334;3.244;2023-05-07T06:00:29;21.63;;;16.30;;
22812;SDS011;11573;51.334;3.244;2023-05-07T06:03:01;23.45;;;15.90;;
22812;SDS011;11573;51.334;3.244;2023-05-07T06:05:29;19.40;;;15.73;;
22812;SDS011;11573;51.334;3.244;2023-05-07T06:07:56;22.23;;;15.20;;
22812;SDS011;11573;51.334;3.244;2023-05-07T06:10:25;22.15;;;15.10;;
22812;SDS011;11573;51.334;3.244;2023-05-07T06:12:54;23.92;;;15.73;;
22812;SDS011;11573;51.334;3.244;2023-05-07T06:15:21;23.40;;;15.80;;
22812;SDS011;11573;51.334;3.244;2023-05-07T06:17:49;20.75;;;15.18;;
22812;SDS011;11573;51.334;3.244;2023-05-07T06:20:16;25.27;;;14.48;;
22812;SDS011;11573;51.334;3.244;2023-05-07T06:22:44;20.85;;;13.50;;
22812;SDS011;11573;51.334;3.244;2023-05-07T06:25:12;19.08;;;14.20;;
22812;SDS011;11573;51.334;3.244;2023-05-07T06:27:41;20.67;;;13.82;;
22812;SDS011;11573;51.334;3.244;2023-05-07T06:30:08;20.67;;;13.68;;
22812;SDS011;11573;51.334;3.244;2023-05-07T06:32:36;23.20;;;13.95;;
22812;SDS011;11573;51.334;3.244;2023-05-07T06:35:04;20.63;;;14.77;;
22812;SDS011;11573;51.334;3.244;2023-05-07T06:37:34;21.13;;;14.05;;
22812;SDS011;11573;51.334;3.244;2023-05-07T06:40:04;24.40;;;13.98;;
22812;SDS011;11573;51.334;3.244;2023-05-07T06:42:37;24.15;;;14.48;;
22812;SDS011;11573;51.334;3.244;2023-05-07T06:45:23;24.05;;;14.20;;
22812;SDS011;11573;51.334;3.244;2023-05-07T06:47:53;22.13;;;13.35;;
22812;SDS011;11573;51.334;3.244;2023-05-07T06:50:21;20.98;;;12.98;;
22812;SDS011;11573;51.334;3.244;2023-05-07T06:52:51;23.15;;;13.10;;
22812;SDS011;11573;51.334;3.244;2023-05-07T06:55:18;24.08;;;12.55;;
22812;SDS011;11573;51.334;3.244;2023-05-07T06:57:46;19.23;;;11.52;;
22812;SDS011;11573;51.334;3.244;2023-05-07T07:00:14;21.42;;;12.07;;
22812;SDS011;11573;51.334;3.244;2023-05-07T07:02:47;26.92;;;12.52;;
22812;SDS011;11573;51.334;3.244;2023-05-07T07:05:17;22.40;;;11.55;;
22812;SDS011;11573;51.334;3.244;2023-05-07T07:07:44;19.63;;;10.77;;
22812;SDS011;11573;51.334;3.244;2023-05-07T07:10:19;20.48;;;11.27;;
22812;SDS011;11573;51.334;3.244;2023-05-07T07:12:47;20.35;;;10.57;;
22812;SDS011;11573;51.334;3.244;2023-05-07T07:15:15;15.85;;;10.55;;
22812;SDS011;11573;51.334;3.244;2023-05-07T07:17:43;23.05;;;11.40;;
22812;SDS011;11573;51.334;3.244;2023-05-07T07:20:10;17.98;;;10.65;;
22812;SDS011;11573;51.334;3.244;2023-05-07T07:22:39;16.90;;;10.95;;
22812;SDS011;11573;51.334;3.244;2023-05-07T07:25:06;18.60;;;9.63;;
22812;SDS011;11573;51.334;3.244;2023-05-07T07:27:37;18.08;;;9.52;;
22812;SDS011;11573;51.334;3.244;2023-05-07T07:30:06;15.50;;;8.35;;
22812;SDS011;11573;51.334;3.244;2023-05-07T07:32:37;17.25;;;8.80;;
22812;SDS011;11573;51.334;3.244;2023-05-07T07:35:05;14.85;;;8.40;;
22812;SDS011;11573;51.334;3.244;2023-05-07T07:37:32;18.58;;;9.82;;
22812;SDS011;11573;51.334;3.244;2023-05-07T07:40:00;17.83;;;9.45;;
22812;SDS011;11573;51.334;3.244;2023-05-07T07:42:27;13.15;;;8.68;;
22812;SDS011;11573;51.334;3.244;2023-05-07T07:44:56;16.08;;;9.55;;
22812;SDS011;11573;51.334;3.244;2023-05-07T07:47:26;15.88;;;9.40;;
22812;SDS011;11573;51.334;3.244;2023-05-07T07:49:53;17.88;;;9.23;;
22812;SDS011;11573;51.334;3.244;2023-05-07T07:52:20;13.45;;;7.95;;
22812;SDS011;11573;51.334;3.244;2023-05-07T07:54:48;16.88;;;7.10;;
22812;SDS011;11573;51.334;3.244;2023-05-07T07:57:15;14.40;;;7.78;;
22812;SDS011;11573;51.334;3.244;2023-05-07T07:59:42;12.90;;;9.02;;
22812;SDS011;11573;51.334;3.244;2023-05-07T08:02:11;15.07;;;7.97;;
22812;SDS011;11573;51.334;3.244;2023-05-07T08:04:38;14.73;;;7.70;;
22812;SDS011;11573;51.334;3.244;2023-05-07T08:07:07;17.83;;;8.23;;
22812;SDS011;11573;51.334;3.244;2023-05-07T08:09:38;24.55;;;10.38;;
22812;SDS011;11573;51.334;3.244;2023-05-07T08:12:06;18.38;;;11.43;;
22812;SDS011;11573;51.334;3.244;2023-05-07T08:14:34;18.45;;;10.27;;
22812;SDS011;11573;51.334;3.244;2023-05-07T08:17:04;15.95;;;10.40;;
22812;SDS011;11573;51.334;3.244;2023-05-07T08:19:32;23.83;;;11.70;;
22812;SDS011;11573;51.334;3.244;2023-05-07T08:22:02;15.82;;;9.60;;
22812;SDS011;11573;51.334;3.244;2023-05-07T08:24:32;15.70;;;9.10;;
22812;SDS011;11573;51.334;3.244;2023-05-07T08:26:59;18.00;;;10.05;;
22812;SDS011;11573;51.334;3.244;2023-05-07T08:29:26;13.13;;;9.55;;
22812;SDS011;11573;51.334;3.244;2023-05-07T08:31:54;15.75;;;9.43;;
22812;SDS011;11573;51.334;3.244;2023-05-07T08:34:21;15.35;;;9.25;;
22812;SDS011;11573;51.334;3.244;2023-05-07T08:36:51;20.92;;;10.48;;
22812;SDS011;11573;51.334;3.244;2023-05-07T08:39:21;17.10;;;9.95;;
22812;SDS011;11573;51.334;3.244;2023-05-07T08:41:51;18.58;;;10.48;;
22812;SDS011;11573;51.334;3.244;2023-05-07T08:44:24;15.50;;;10.25;;
22812;SDS011;11573;51.334;3.244;2023-05-07T08:46:56;22.73;;;11.98;;
22812;SDS011;11573;51.334;3.244;2023-05-07T08:49:25;20.77;;;10.38;;
22812;SDS011;11573;51.334;3.244;2023-05-07T08:51:54;20.60;;;11.07;;
22812;SDS011;11573;51.334;3.244;2023-05-07T08:54:23;17.42;;;11.30;;
22812;SDS011;11573;51.334;3.244;2023-05-07T08:56:51;18.95;;;12.65;;
22812;SDS011;11573;51.334;3.244;2023-05-07T08:59:18;21.15;;;12.40;;
22812;SDS011;11573;51.334;3.244;2023-05-07T09:01:46;18.50;;;11.75;;
22812;SDS011;11573;51.334;3.244;2023-05-07T09:04:14;21.52;;;12.35;;
22812;SDS011;11573;51.334;3.244;2023-05-07T09:06:42;19.75;;;11.98;;
22812;SDS011;11573;51.334;3.244;2023-05-07T09:09:14;16.83;;;10.30;;
22812;SDS011;11573;51.334;3.244;2023-05-07T09:11:44;18.77;;;12.23;;
22812;SDS011;11573;51.334;3.244;2023-05-07T09:14:13;19.98;;;10.98;;
22812;SDS011;11573;51.334;3.244;2023-05-07T09:16:43;20.88;;;11.25;;
22812;SDS011;11573;51.334;3.244;2023-05-07T09:19:10;19.55;;;11.63;;
22812;SDS011;11573;51.334;3.244;2023-05-07T09:21:42;19.67;;;12.15;;
22812;SDS011;11573;51.334;3.244;2023-05-07T09:24:11;18.75;;;12.55;;
22812;SDS011;11573;51.334;3.244;2023-05-07T09:26:40;21.80;;;12.85;;
22812;SDS011;11573;51.334;3.244;2023-05-07T09:29:09;18.98;;;12.07;;
22812;SDS011;11573;51.334;3.244;2023-05-07T09:31:38;16.08;;;11.35;;
22812;SDS011;11573;51.334;3.244;2023-05-07T09:34:08;18.73;;;12.48;;
22812;SDS011;11573;51.334;3.244;2023-05-07T09:36:39;21.33;;;12.60;;
22812;SDS011;11573;51.334;3.244;2023-05-07T09:39:06;22.48;;;13.15;;
22812;SDS011;11573;51.334;3.244;2023-05-07T09:41:36;17.85;;;12.13;;
22812;SDS011;11573;51.334;3.244;2023-05-07T09:44:20;20.75;;;12.38;;
22812;SDS011;11573;51.334;3.244;2023-05-07T09:46:53;22.23;;;12.45;;
22812;SDS011;11573;51.334;3.244;2023-05-07T09:49:33;19.92;;;13.02;;
22812;SDS011;11573;51.334;3.244;2023-05-07T09:52:08;20.83;;;13.18;;
22812;SDS011;11573;51.334;3.244;2023-05-07T09:54:43;17.90;;;11.82;;
22812;SDS011;11573;51.334;3.244;2023-05-07T09:57:14;20.50;;;12.80;;
22812;SDS011;11573;51.334;3.244;2023-05-07T09:59:44;21.77;;;12.85;;
22812;SDS011;11573;51.334;3.244;2023-05-07T10:02:16;20.15;;;12.50;;
22812;SDS011;11573;51.334;3.244;2023-05-07T10:04:49;20.75;;;13.30;;
22812;SDS011;11573;51.334;3.244;2023-05-07T10:07:22;22.45;;;13.93;;
22812;SDS011;11573;51.334;3.244;2023-05-07T10:09:55;21.17;;;14.10;;
22812;SDS011;11573;51.334;3.244;2023-05-07T10:12:30;24.17;;;14.77;;
22812;SDS011;11573;51.334;3.244;2023-05-07T10:15:09;26.52;;;15.50;;
22812;SDS011;11573;51.334;3.244;2023-05-07T10:17:41;19.20;;;13.60;;
22812;SDS011;11573;51.334;3.244;2023-05-07T10:20:10;24.85;;;12.82;;
22812;SDS011;11573;51.334;3.244;2023-05-07T10:22:47;25.83;;;12.70;;
22812;SDS011;11573;51.334;3.244;2023-05-07T10:25:21;20.00;;;12.73;;
22812;SDS011;11573;51.334;3.244;2023-05-07T10:27:53;20.27;;;13.27;;
22812;SDS011;11573;51.334;3.244;2023-05-07T10:33:37;22.02;;;13.75;;
22812;SDS011;11573;51.334;3.244;2023-05-07T10:36:06;25.48;;;13.07;;
22812;SDS011;11573;51.334;3.244;2023-05-07T10:38:35;22.90;;;13.38;;
22812;SDS011;11573;51.334;3.244;2023-05-07T10:41:02;21.23;;;13.57;;
22812;SDS011;11573;51.334;3.244;2023-05-07T10:43:42;20.88;;;12.65;;
22812;SDS011;11573;51.334;3.244;2023-05-07T10:46:20;23.80;;;13.30;;
22812;SDS011;11573;51.334;3.244;2023-05-07T10:51:40;17.83;;;13.15;;
22812;SDS011;11573;51.334;3.244;2023-05-07T10:54:18;21.00;;;13.07;;
22812;SDS011;11573;51.334;3.244;2023-05-07T11:00:03;21.70;;;13.40;;
22812;SDS011;11573;51.334;3.244;2023-05-07T11:03:06;18.77;;;12.55;;
22812;SDS011;11573;51.334;3.244;2023-05-07T11:05:47;17.20;;;10.25;;
22812;SDS011;11573;51.334;3.244;2023-05-07T11:08:21;21.33;;;11.13;;
22812;SDS011;11573;51.334;3.244;2023-05-07T11:10:55;15.63;;;10.90;;
22812;SDS011;11573;51.334;3.244;2023-05-07T11:13:44;21.80;;;12.38;;
22812;SDS011;11573;51.334;3.244;2023-05-07T11:16:27;25.15;;;13.52;;
22812;SDS011;11573;51.334;3.244;2023-05-07T11:19:05;21.42;;;12.00;;
22812;SDS011;11573;51.334;3.244;2023-05-07T11:21:41;20.48;;;12.52;;
22812;SDS011;11573;51.334;3.244;2023-05-07T11:24:24;19.88;;;11.15;;
22812;SDS011;11573;51.334;3.244;2023-05-07T11:26:56;22.95;;;11.55;;
22812;SDS011;11573;51.334;3.244;2023-05-07T11:29:26;19.15;;;11.45;;
22812;SDS011;11573;51.334;3.244;2023-05-07T11:32:04;23.30;;;11.98;;
22812;SDS011;11573;51.334;3.244;2023-05-07T11:34:39;20.90;;;10.73;;
22812;SDS011;11573;51.334;3.244;2023-05-07T11:37:07;16.90;;;10.80;;
22812;SDS011;11573;51.334;3.244;2023-05-07T11:39:50;18.55;;;10.18;;
22812;SDS011;11573;51.334;3.244;2023-05-07T11:42:25;18.15;;;10.25;;
22812;SDS011;11573;51.334;3.244;2023-05-07T11:44:57;19.67;;;10.57;;
22812;SDS011;11573;51.334;3.244;2023-05-07T11:47:25;20.27;;;11.63;;
22812;SDS011;11573;51.334;3.244;2023-05-07T11:49:53;18.80;;;11.15;;
22812;SDS011;11573;51.334;3.244;2023-05-07T11:52:22;25.58;;;12.40;;
22812;SDS011;11573;51.334;3.244;2023-05-07T11:54:52;22.27;;;11.77;;
22812;SDS011;11573;51.334;3.244;2023-05-07T11:57:24;17.38;;;10.55;;
22812;SDS011;11573;51.334;3.244;2023-05-07T11:59:58;24.02;;;12.63;;
22812;SDS011;11573;51.334;3.244;2023-05-07T12:02:26;24.00;;;13.03;;
22812;SDS011;11573;51.334;3.244;2023-05-07T12:04:54;22.70;;;14.30;;
22812;SDS011;11573;51.334;3.244;2023-05-07T12:07:23;23.05;;;14.35;;
22812;SDS011;11573;51.334;3.244;2023-05-07T12:09:50;25.90;;;15.18;;
22812;SDS011;11573;51.334;3.244;2023-05-07T12:12:18;26.20;;;15.30;;
22812;SDS011;11573;51.334;3.244;2023-05-07T12:14:45;23.65;;;14.70;;
22812;SDS011;11573;51.334;3.244;2023-05-07T12:17:13;25.63;;;13.25;;
22812;SDS011;11573;51.334;3.244;2023-05-07T12:19:42;26.02;;;15.65;;
22812;SDS011;11573;51.334;3.244;2023-05-07T12:22:11;26.48;;;14.07;;
22812;SDS011;11573;51.334;3.244;2023-05-07T12:24:57;21.10;;;13.15;;
22812;SDS011;11573;51.334;3.244;2023-05-07T12:27:25;20.92;;;13.35;;
22812;SDS011;11573;51.334;3.244;2023-05-07T12:29:52;22.02;;;13.05;;
22812;SDS011;11573;51.334;3.244;2023-05-07T12:32:20;21.58;;;12.05;;
22812;SDS011;11573;51.334;3.244;2023-05-07T12:34:51;21.23;;;12.20;;
22812;SDS011;11573;51.334;3.244;2023-05-07T12:37:23;24.45;;;15.07;;
22812;SDS011;11573;51.334;3.244;2023-05-07T12:40:04;29.15;;;15.30;;
22812;SDS011;11573;51.334;3.244;2023-05-07T12:42:35;24.90;;;14.43;;
22812;SDS011;11573;51.334;3.244;2023-05-07T12:45:10;21.00;;;13.80;;
22812;SDS011;11573;51.334;3.244;2023-05-07T12:50:06;22.50;;;14.32;;
22812;SDS011;11573;51.334;3.244;2023-05-07T12:52:33;22.20;;;13.82;;
22812;SDS011;11573;51.334;3.244;2023-05-07T12:55:04;22.70;;;13.98;;
22812;SDS011;11573;51.334;3.244;2023-05-07T12:57:39;22.67;;;14.93;;
22812;SDS011;11573;51.334;3.244;2023-05-07T13:00:08;25.17;;;15.43;;
22812;SDS011;11573;51.334;3.244;2023-05-07T13:02:39;24.42;;;14.98;;
22812;SDS011;11573;51.334;3.244;2023-05-07T13:05:08;22.88;;;13.82;;
22812;SDS011;11573;51.334;3.244;2023-05-07T13:07:35;23.70;;;14.90;;
22812;SDS011;11573;51.334;3.244;2023-05-07T13:10:04;19.60;;;12.93;;
22812;SDS011;11573;51.334;3.244;2023-05-07T13:12:31;24.80;;;14.35;;
22812;SDS011;11573;51.334;3.244;2023-05-07T13:14:59;18.17;;;13.00;;
22812;SDS011;11573;51.334;3.244;2023-05-07T13:17:25;25.55;;;16.90;;
22812;SDS011;11573;51.334;3.244;2023-05-07T13:19:53;23.73;;;15.15;;
22812;SDS011;11573;51.334;3.244;2023-05-07T13:22:19;22.17;;;14.65;;
22812;SDS011;11573;51.334;3.244;2023-05-07T13:24:47;22.48;;;14.35;;
22812;SDS011;11573;51.334;3.244;2023-05-07T13:27:14;25.90;;;14.52;;
22812;SDS011;11573;51.334;3.244;2023-05-07T13:29:41;20.77;;;14.23;;
22812;SDS011;11573;51.334;3.244;2023-05-07T13:32:08;23.83;;;13.80;;
22812;SDS011;11573;51.334;3.244;2023-05-07T13:34:35;29.17;;;16.30;;
22812;SDS011;11573;51.334;3.244;2023-05-07T13:37:03;22.13;;;15.07;;
22812;SDS011;11573;51.334;3.244;2023-05-07T13:39:30;23.23;;;13.77;;
22812;SDS011;11573;51.334;3.244;2023-05-07T13:41:57;21.10;;;11.82;;
22812;SDS011;11573;51.334;3.244;2023-05-07T13:44:24;21.85;;;11.50;;
22812;SDS011;11573;51.334;3.244;2023-05-07T13:46:52;21.50;;;11.45;;
22812;SDS011;11573;51.334;3.244;2023-05-07T13:49:19;26.48;;;14.70;;
22812;SDS011;11573;51.334;3.244;2023-05-07T13:51:46;20.00;;;13.35;;
22812;SDS011;11573;51.334;3.244;2023-05-07T13:54:13;22.52;;;13.75;;
22812;SDS011;11573;51.334;3.244;2023-05-07T13:56:40;14.80;;;9.50;;
22812;SDS011;11573;51.334;3.244;2023-05-07T13:59:07;16.13;;;11.30;;
22812;SDS011;11573;51.334;3.244;2023-05-07T14:01:34;14.15;;;11.25;;
22812;SDS011;11573;51.334;3.244;2023-05-07T14:04:01;23.98;;;13.57;;
22812;SDS011;11573;51.334;3.244;2023-05-07T14:06:29;20.63;;;12.98;;
22812;SDS011;11573;51.334;3.244;2023-05-07T14:08:56;22.00;;;15.27;;
22812;SDS011;11573;51.334;3.244;2023-05-07T14:11:24;26.52;;;16.92;;
22812;SDS011;11573;51.334;3.244;2023-05-07T14:13:51;21.48;;;12.70;;
22812;SDS011;11573;51.334;3.244;2023-05-07T14:16:18;20.25;;;11.80;;
22812;SDS011;11573;51.334;3.244;2023-05-07T14:18:45;21.73;;;11.02;;
22812;SDS011;11573;51.334;3.244;2023-05-07T14:21:12;19.95;;;11.65;;
22812;SDS011;11573;51.334;3.244;2023-05-07T14:23:39;21.05;;;12.98;;
22812;SDS011;11573;51.334;3.244;2023-05-07T14:26:06;17.10;;;12.65;;
22812;SDS011;11573;51.334;3.244;2023-05-07T14:28:33;17.90;;;11.18;;
22812;SDS011;11573;51.334;3.244;2023-05-07T14:31:00;14.85;;;11.32;;
22812;SDS011;11573;51.334;3.244;2023-05-07T14:33:27;20.63;;;12.13;;
22812;SDS011;11573;51.334;3.244;2023-05-07T14:35:54;19.52;;;11.88;;
22812;SDS011;11573;51.334;3.244;2023-05-07T14:38:21;14.75;;;9.63;;
22812;SDS011;11573;51.334;3.244;2023-05-07T14:40:48;15.88;;;8.52;;
22812;SDS011;11573;51.334;3.244;2023-05-07T14:43:15;12.32;;;8.20;;
22812;SDS011;11573;51.334;3.244;2023-05-07T14:45:42;14.75;;;10.70;;
22812;SDS011;11573;51.334;3.244;2023-05-07T14:48:09;23.10;;;14.23;;